PWSweather.com
Personal Weather Stations
Station Observations

EtonMackayAU

Lat: -21.263, Lon: 148.975

Elevation: 106

Station Type: Davis Vantage Vue

http://aspgweather.com/cumulus/data.php

Latest ConditionsUpdated 10:26:01 PM GMT+10:10 Tuesday, Oct 22, 2019
Currently Today's Max Today's Min Today's Average
Temperature 67.5°F19.7°C 81.1°F27.3°C 65.7°F18.7°C 72.6°F22.6°C
Dew Point 54.3°F12.4°C 57.6°F14.2°C 45.7°F7.6°C 54.2°F12.3°C
Winds 4.2 mph SSE6.8 kmh SSE 25.3 mph -40.7 kmh - - 14.6 mph 23.5 kmh
Wind Gusts 5.2 mph8.4 kmh 34.7 mph55.8 kmh - -
Humidity 63% 72% 30% 54%
Pressure 30.13 in1020.3 mb 30.14 in1020.7 mb 30.01 in1016.3 mb -
Hour Temp Dew Point Humidity Winds Wind Gusts Pressure Precip Precip Rate Daily Precip Total
10:26 PM 67.5°F19.7°C 54.3°F12.4°C 63% 4.2 mph SSE6.8 kmh SSE 5.2 mph8.4 kmh 30.13 in1020.3 mb 0.00 in0.0 mm 0.00 in0.0 mm 0.00 in0.0 mm
10:21 PM 67.5°F19.7°C 54.3°F12.4°C 63% 4.6 mph SSE7.4 kmh SSE 6.3 mph10.1 kmh 30.13 in1020.3 mb 0.00 in0.0 mm 0.00 in0.0 mm 0.00 in0.0 mm
10:16 PM 67.5°F19.7°C 54.0°F12.2°C 62% 5.1 mph SSE8.2 kmh SSE 6.3 mph10.1 kmh 30.13 in1020.3 mb 0.00 in0.0 mm 0.00 in0.0 mm 0.00 in0.0 mm
10:11 PM 67.5°F19.7°C 54.3°F12.4°C 63% 5.7 mph SSE9.2 kmh SSE 7.8 mph12.6 kmh 30.13 in1020.3 mb 0.00 in0.0 mm 0.00 in0.0 mm 0.00 in0.0 mm
10:06 PM 67.5°F19.7°C 54.0°F12.2°C 62% 5.6 mph S9.0 kmh S 7.8 mph12.6 kmh 30.12 in1020.0 mb 0.00 in0.0 mm 0.00 in0.0 mm 0.00 in0.0 mm
10:01 PM 67.5°F19.7°C 54.0°F12.2°C 62% 5.0 mph S8.0 kmh S 6.3 mph10.1 kmh 30.12 in1020.0 mb 0.00 in0.0 mm 0.00 in0.0 mm 0.00 in0.0 mm
09:51 PM 67.6°F19.8°C 54.1°F12.3°C 62% 5.0 mph S8.0 kmh S 6.3 mph10.1 kmh 30.12 in1020.0 mb 0.00 in0.0 mm 0.00 in0.0 mm 0.00 in0.0 mm
09:46 PM 67.6°F19.8°C 54.1°F12.3°C 62% 5.3 mph SSE8.5 kmh SSE 6.3 mph10.1 kmh 30.12 in1020.0 mb 0.00 in0.0 mm 0.00 in0.0 mm 0.00 in0.0 mm
09:41 PM 67.6°F19.8°C 53.6°F12.0°C 61% 5.1 mph SSE8.2 kmh SSE 6.3 mph10.1 kmh 30.12 in1020.0 mb 0.00 in0.0 mm 0.00 in0.0 mm 0.00 in0.0 mm
09:36 PM 67.5°F19.7°C 53.4°F11.9°C 61% 4.6 mph S7.4 kmh S 5.2 mph8.4 kmh 30.12 in1020.0 mb 0.00 in0.0 mm 0.00 in0.0 mm 0.00 in0.0 mm
09:26 PM 67.5°F19.7°C 53.4°F11.9°C 61% 4.3 mph SSE6.9 kmh SSE 6.3 mph10.1 kmh 30.12 in1020.0 mb 0.00 in0.0 mm 0.00 in0.0 mm 0.00 in0.0 mm
09:16 PM 67.8°F19.9°C 53.8°F12.1°C 61% 5.0 mph SSE8.0 kmh SSE 6.3 mph10.1 kmh 30.12 in1020.0 mb 0.00 in0.0 mm 0.00 in0.0 mm 0.00 in0.0 mm
09:11 PM 67.6°F19.8°C 53.6°F12.0°C 61% 4.9 mph SSE7.9 kmh SSE 6.3 mph10.1 kmh 30.12 in1020.0 mb 0.00 in0.0 mm 0.00 in0.0 mm 0.00 in0.0 mm
08:51 PM 67.6°F19.8°C 53.6°F12.0°C 61% 5.7 mph SSE9.2 kmh SSE 7.8 mph12.6 kmh 30.12 in1020.0 mb 0.00 in0.0 mm 0.00 in0.0 mm 0.00 in0.0 mm
08:46 PM 67.8°F19.9°C 53.8°F12.1°C 61% 6.4 mph SSE10.3 kmh SSE 7.8 mph12.6 kmh 30.12 in1020.0 mb 0.00 in0.0 mm 0.00 in0.0 mm 0.00 in0.0 mm
08:41 PM 67.6°F19.8°C 53.6°F12.0°C 61% 7.2 mph SSE11.6 kmh SSE 8.9 mph14.3 kmh 30.12 in1020.0 mb 0.00 in0.0 mm 0.00 in0.0 mm 0.00 in0.0 mm
08:36 PM 67.6°F19.8°C 53.6°F12.0°C 61% 6.7 mph SSE10.8 kmh SSE 8.9 mph14.3 kmh 30.12 in1020.0 mb 0.00 in0.0 mm 0.00 in0.0 mm 0.00 in0.0 mm
08:31 PM 67.6°F19.8°C 53.6°F12.0°C 61% 5.9 mph SSE9.5 kmh SSE 7.8 mph12.6 kmh 30.12 in1020.0 mb 0.00 in0.0 mm 0.00 in0.0 mm 0.00 in0.0 mm
08:26 PM 67.6°F19.8°C 53.6°F12.0°C 61% 6.0 mph SSE9.7 kmh SSE 7.8 mph12.6 kmh 30.12 in1020.0 mb 0.00 in0.0 mm 0.00 in0.0 mm 0.00 in0.0 mm
08:21 PM 67.6°F19.8°C 53.6°F12.0°C 61% 7.5 mph SSE12.1 kmh SSE 11.4 mph18.3 kmh 30.12 in1020.0 mb 0.00 in0.0 mm 0.00 in0.0 mm 0.00 in0.0 mm
08:11 PM 67.8°F19.9°C 53.8°F12.1°C 61% 10.2 mph SSE16.4 kmh SSE 13.0 mph20.9 kmh 30.11 in1019.6 mb 0.00 in0.0 mm 0.00 in0.0 mm 0.00 in0.0 mm
08:06 PM 67.6°F19.8°C 53.6°F12.0°C 61% 10.6 mph SSE17.1 kmh SSE 13.0 mph20.9 kmh 30.11 in1019.6 mb 0.00 in0.0 mm 0.00 in0.0 mm 0.00 in0.0 mm
08:01 PM 67.6°F19.8°C 53.6°F12.0°C 61% 11.7 mph SSE18.8 kmh SSE 13.0 mph20.9 kmh 30.11 in1019.6 mb 0.00 in0.0 mm 0.00 in0.0 mm 0.00 in0.0 mm
07:56 PM 67.3°F19.6°C 53.2°F11.8°C 61% 11.8 mph SE19.0 kmh SE 13.0 mph20.9 kmh 30.11 in1019.6 mb 0.00 in0.0 mm 0.00 in0.0 mm 0.00 in0.0 mm
07:51 PM 67.1°F19.5°C 53.1°F11.7°C 61% 11.3 mph SE18.2 kmh SE 13.0 mph20.9 kmh 30.10 in1019.3 mb 0.00 in0.0 mm 0.00 in0.0 mm 0.00 in0.0 mm
07:46 PM 67.1°F19.5°C 53.1°F11.7°C 61% 11.7 mph SE18.8 kmh SE 14.1 mph22.7 kmh 30.10 in1019.3 mb 0.00 in0.0 mm 0.00 in0.0 mm 0.00 in0.0 mm
07:41 PM 67.3°F19.6°C 52.9°F11.6°C 60% 11.8 mph SE19.0 kmh SE 14.1 mph22.7 kmh 30.10 in1019.3 mb 0.00 in0.0 mm 0.00 in0.0 mm 0.00 in0.0 mm
07:36 PM 67.3°F19.6°C 52.9°F11.6°C 60% 10.3 mph SE16.6 kmh SE 13.0 mph20.9 kmh 30.10 in1019.3 mb 0.00 in0.0 mm 0.00 in0.0 mm 0.00 in0.0 mm
07:31 PM 67.5°F19.7°C 53.1°F11.7°C 60% 8.8 mph SE14.2 kmh SE 10.3 mph16.6 kmh 30.10 in1019.3 mb 0.00 in0.0 mm 0.00 in0.0 mm 0.00 in0.0 mm
07:26 PM 67.6°F19.8°C 52.7°F11.5°C 59% 9.1 mph SSE14.6 kmh SSE 11.4 mph18.3 kmh 30.10 in1019.3 mb 0.00 in0.0 mm 0.00 in0.0 mm 0.00 in0.0 mm
07:21 PM 67.8°F19.9°C 52.9°F11.6°C 59% 10.3 mph SSE16.6 kmh SSE 13.0 mph20.9 kmh 30.10 in1019.3 mb 0.00 in0.0 mm 0.00 in0.0 mm 0.00 in0.0 mm
07:16 PM 68.4°F20.2°C 53.4°F11.9°C 59% 9.9 mph SSE15.9 kmh SSE 13.0 mph20.9 kmh 30.10 in1019.3 mb 0.00 in0.0 mm 0.00 in0.0 mm 0.00 in0.0 mm
07:11 PM 68.4°F20.2°C 52.9°F11.6°C 58% 8.5 mph SSE13.7 kmh SSE 11.4 mph18.3 kmh 30.10 in1019.3 mb 0.00 in0.0 mm 0.00 in0.0 mm 0.00 in0.0 mm
07:06 PM 68.4°F20.2°C 52.9°F11.6°C 58% 8.0 mph SSE12.9 kmh SSE 10.3 mph16.6 kmh 30.10 in1019.3 mb 0.00 in0.0 mm 0.00 in0.0 mm 0.00 in0.0 mm
07:01 PM 68.5°F20.3°C 52.7°F11.5°C 57% 7.8 mph SSE12.6 kmh SSE 8.9 mph14.3 kmh 30.10 in1019.3 mb 0.00 in0.0 mm 0.00 in0.0 mm 0.00 in0.0 mm
06:56 PM 68.7°F20.4°C 52.9°F11.6°C 57% 8.9 mph SSE14.3 kmh SSE 10.3 mph16.6 kmh 30.09 in1019.0 mb 0.00 in0.0 mm 0.00 in0.0 mm 0.00 in0.0 mm
06:51 PM 69.1°F20.6°C 52.7°F11.5°C 56% 10.6 mph SSE17.1 kmh SSE 14.1 mph22.7 kmh 30.09 in1019.0 mb 0.00 in0.0 mm 0.00 in0.0 mm 0.00 in0.0 mm
06:46 PM 69.4°F20.8°C 53.1°F11.7°C 56% 11.3 mph SE18.2 kmh SE 14.1 mph22.7 kmh 30.09 in1019.0 mb 0.00 in0.0 mm 0.00 in0.0 mm 0.00 in0.0 mm
06:41 PM 69.6°F20.9°C 53.2°F11.8°C 56% 11.9 mph SE19.2 kmh SE 15.4 mph24.8 kmh 30.09 in1019.0 mb 0.00 in0.0 mm 0.00 in0.0 mm 0.00 in0.0 mm
06:36 PM 69.8°F21.0°C 52.9°F11.6°C 55% 12.6 mph SE20.3 kmh SE 15.4 mph24.8 kmh 30.09 in1019.0 mb 0.00 in0.0 mm 0.00 in0.0 mm 0.00 in0.0 mm
06:31 PM 70.0°F21.1°C 53.1°F11.7°C 55% 14.9 mph SE24.0 kmh SE 19.3 mph31.1 kmh 30.09 in1019.0 mb 0.00 in0.0 mm 0.00 in0.0 mm 0.00 in0.0 mm
06:26 PM 70.2°F21.2°C 53.2°F11.8°C 55% 14.9 mph SE24.0 kmh SE 19.3 mph31.1 kmh 30.09 in1019.0 mb 0.00 in0.0 mm 0.00 in0.0 mm 0.00 in0.0 mm
06:21 PM 70.3°F21.3°C 52.9°F11.6°C 54% 12.6 mph SE20.3 kmh SE 16.5 mph26.6 kmh 30.08 in1018.6 mb 0.00 in0.0 mm 0.00 in0.0 mm 0.00 in0.0 mm
06:16 PM 70.7°F21.5°C 53.2°F11.8°C 54% 12.0 mph SE19.3 kmh SE 15.4 mph24.8 kmh 30.08 in1018.6 mb 0.00 in0.0 mm 0.00 in0.0 mm 0.00 in0.0 mm
06:11 PM 70.9°F21.6°C 52.9°F11.6°C 53% 14.4 mph SE23.2 kmh SE 19.3 mph31.1 kmh 30.08 in1018.6 mb 0.00 in0.0 mm 0.00 in0.0 mm 0.00 in0.0 mm
06:06 PM 71.1°F21.7°C 53.1°F11.7°C 53% 16.8 mph SE27.0 kmh SE 21.7 mph34.9 kmh 30.08 in1018.6 mb 0.00 in0.0 mm 0.00 in0.0 mm 0.00 in0.0 mm
06:01 PM 71.4°F21.9°C 52.3°F11.3°C 51% 17.8 mph SE28.6 kmh SE 21.7 mph34.9 kmh 30.07 in1018.3 mb 0.00 in0.0 mm 0.00 in0.0 mm 0.00 in0.0 mm
05:56 PM 71.6°F22.0°C 52.0°F11.1°C 50% 16.8 mph SE27.0 kmh SE 21.7 mph34.9 kmh 30.07 in1018.3 mb 0.00 in0.0 mm 0.00 in0.0 mm 0.00 in0.0 mm
05:51 PM 72.0°F22.2°C 52.2°F11.2°C 50% 16.2 mph SE26.1 kmh SE 18.1 mph29.1 kmh 30.07 in1018.3 mb 0.00 in0.0 mm 0.00 in0.0 mm 0.00 in0.0 mm
05:46 PM 72.0°F22.2°C 52.2°F11.2°C 50% 16.9 mph SE27.2 kmh SE 20.6 mph33.2 kmh 30.06 in1017.9 mb 0.00 in0.0 mm 0.00 in0.0 mm 0.00 in0.0 mm
05:41 PM 72.3°F22.4°C 51.4°F10.8°C 48% 18.9 mph SE30.4 kmh SE 22.8 mph36.7 kmh 30.06 in1017.9 mb 0.00 in0.0 mm 0.00 in0.0 mm 0.00 in0.0 mm
05:36 PM 72.5°F22.5°C 51.1°F10.6°C 47% 19.4 mph SE31.2 kmh SE 24.4 mph39.3 kmh 30.06 in1017.9 mb 0.00 in0.0 mm 0.00 in0.0 mm 0.00 in0.0 mm
05:31 PM 72.9°F22.7°C 52.0°F11.1°C 48% 17.4 mph SE28.0 kmh SE 24.4 mph39.3 kmh 30.06 in1017.9 mb 0.00 in0.0 mm 0.00 in0.0 mm 0.00 in0.0 mm
05:26 PM 73.4°F23.0°C 52.5°F11.4°C 48% 17.8 mph SE28.6 kmh SE 21.7 mph34.9 kmh 30.05 in1017.6 mb 0.00 in0.0 mm 0.00 in0.0 mm 0.00 in0.0 mm
05:21 PM 73.6°F23.1°C 52.7°F11.5°C 48% 18.4 mph SE29.6 kmh SE 22.8 mph36.7 kmh 30.05 in1017.6 mb 0.00 in0.0 mm 0.00 in0.0 mm 0.00 in0.0 mm
05:16 PM 73.8°F23.2°C 52.9°F11.6°C 48% 19.7 mph SE31.7 kmh SE 22.8 mph36.7 kmh 30.05 in1017.6 mb 0.00 in0.0 mm 0.00 in0.0 mm 0.00 in0.0 mm
05:11 PM 73.8°F23.2°C 52.2°F11.2°C 47% 18.9 mph SE30.4 kmh SE 22.8 mph36.7 kmh 30.04 in1017.3 mb 0.00 in0.0 mm 0.00 in0.0 mm 0.00 in0.0 mm
05:06 PM 73.9°F23.3°C 51.8°F11.0°C 46% 18.8 mph SE30.3 kmh SE 24.4 mph39.3 kmh 30.04 in1017.3 mb 0.00 in0.0 mm 0.00 in0.0 mm 0.00 in0.0 mm
05:01 PM 74.5°F23.6°C 52.9°F11.6°C 47% 21.2 mph SE34.1 kmh SE 24.4 mph39.3 kmh 30.04 in1017.3 mb 0.00 in0.0 mm 0.00 in0.0 mm 0.00 in0.0 mm
04:56 PM 74.7°F23.7°C 53.1°F11.7°C 47% 19.5 mph SE31.4 kmh SE 22.8 mph36.7 kmh 30.04 in1017.3 mb 0.00 in0.0 mm 0.00 in0.0 mm 0.00 in0.0 mm
04:51 PM 74.8°F23.8°C 53.2°F11.8°C 47% 17.0 mph SE27.4 kmh SE 20.6 mph33.2 kmh 30.04 in1017.3 mb 0.00 in0.0 mm 0.00 in0.0 mm 0.00 in0.0 mm
04:46 PM 74.8°F23.8°C 53.2°F11.8°C 47% 18.7 mph SE30.1 kmh SE 25.5 mph41.0 kmh 30.04 in1017.3 mb 0.00 in0.0 mm 0.00 in0.0 mm 0.00 in0.0 mm
04:41 PM 74.8°F23.8°C 53.8°F12.1°C 48% 19.7 mph SE31.7 kmh SE 25.5 mph41.0 kmh 30.04 in1017.3 mb 0.00 in0.0 mm 0.00 in0.0 mm 0.00 in0.0 mm
04:36 PM 75.9°F24.4°C 54.1°F12.3°C 47% 18.9 mph SE30.4 kmh SE 24.4 mph39.3 kmh 30.04 in1017.3 mb 0.00 in0.0 mm 0.00 in0.0 mm 0.00 in0.0 mm
04:31 PM 76.1°F24.5°C 54.3°F12.4°C 47% 18.6 mph SE29.9 kmh SE 24.4 mph39.3 kmh 30.03 in1016.9 mb 0.00 in0.0 mm 0.00 in0.0 mm 0.00 in0.0 mm
04:26 PM 76.1°F24.5°C 53.8°F12.1°C 46% 19.9 mph SE32.0 kmh SE 28.0 mph45.1 kmh 30.03 in1016.9 mb 0.00 in0.0 mm 0.00 in0.0 mm 0.00 in0.0 mm
04:21 PM 76.1°F24.5°C 54.3°F12.4°C 47% 21.8 mph SE35.1 kmh SE 28.0 mph45.1 kmh 30.03 in1016.9 mb 0.00 in0.0 mm 0.00 in0.0 mm 0.00 in0.0 mm
04:16 PM 76.1°F24.5°C 54.9°F12.7°C 48% 22.9 mph SE36.9 kmh SE 26.8 mph43.1 kmh 30.03 in1016.9 mb 0.00 in0.0 mm 0.00 in0.0 mm 0.00 in0.0 mm
04:11 PM 76.1°F24.5°C 54.9°F12.7°C 48% 22.1 mph SE35.6 kmh SE 26.8 mph43.1 kmh 30.03 in1016.9 mb 0.00 in0.0 mm 0.00 in0.0 mm 0.00 in0.0 mm
04:06 PM 76.6°F24.8°C 54.9°F12.7°C 47% 21.9 mph SE35.2 kmh SE 28.0 mph45.1 kmh 30.02 in1016.6 mb 0.00 in0.0 mm 0.00 in0.0 mm 0.00 in0.0 mm
04:01 PM 77.0°F25.0°C 54.7°F12.6°C 46% 21.7 mph SE34.9 kmh SE 28.0 mph45.1 kmh 30.02 in1016.6 mb 0.00 in0.0 mm 0.00 in0.0 mm 0.00 in0.0 mm
03:56 PM 77.0°F25.0°C 53.4°F11.9°C 44% 20.3 mph SE32.7 kmh SE 24.4 mph39.3 kmh 30.02 in1016.6 mb 0.00 in0.0 mm 0.00 in0.0 mm 0.00 in0.0 mm
03:51 PM 77.2°F25.1°C 52.9°F11.6°C 43% 24.0 mph SE38.6 kmh SE 28.0 mph45.1 kmh 30.02 in1016.6 mb 0.00 in0.0 mm 0.00 in0.0 mm 0.00 in0.0 mm
03:46 PM 77.2°F25.1°C 52.9°F11.6°C 43% 24.2 mph SE38.9 kmh SE 30.6 mph49.2 kmh 30.02 in1016.6 mb 0.00 in0.0 mm 0.00 in0.0 mm 0.00 in0.0 mm
03:41 PM 77.5°F25.3°C 52.0°F11.1°C 41% 22.2 mph SE35.7 kmh SE 30.6 mph49.2 kmh 30.01 in1016.3 mb 0.00 in0.0 mm 0.00 in0.0 mm 0.00 in0.0 mm
03:36 PM 77.7°F25.4°C 52.2°F11.2°C 41% 22.9 mph SE36.9 kmh SE 28.0 mph45.1 kmh 30.01 in1016.3 mb 0.00 in0.0 mm 0.00 in0.0 mm 0.00 in0.0 mm
03:31 PM 78.1°F25.6°C 52.5°F11.4°C 41% 21.8 mph SE35.1 kmh SE 25.5 mph41.0 kmh 30.01 in1016.3 mb 0.00 in0.0 mm 0.00 in0.0 mm 0.00 in0.0 mm
03:26 PM 78.3°F25.7°C 53.2°F11.8°C 42% 22.3 mph SE35.9 kmh SE 25.5 mph41.0 kmh 30.02 in1016.6 mb 0.00 in0.0 mm 0.00 in0.0 mm 0.00 in0.0 mm
03:21 PM 78.6°F25.9°C 53.6°F12.0°C 42% 21.4 mph SE34.4 kmh SE 25.5 mph41.0 kmh 30.02 in1016.6 mb 0.00 in0.0 mm 0.00 in0.0 mm 0.00 in0.0 mm
03:16 PM 79.0°F26.1°C 54.0°F12.2°C 42% 19.8 mph SE31.9 kmh SE 25.5 mph41.0 kmh 30.01 in1016.3 mb 0.00 in0.0 mm 0.00 in0.0 mm 0.00 in0.0 mm
03:11 PM 78.8°F26.0°C 53.1°F11.7°C 41% 19.7 mph SE31.7 kmh SE 24.4 mph39.3 kmh 30.01 in1016.3 mb 0.00 in0.0 mm 0.00 in0.0 mm 0.00 in0.0 mm
03:06 PM 79.0°F26.1°C 53.2°F11.8°C 41% 19.4 mph SE31.2 kmh SE 24.4 mph39.3 kmh 30.01 in1016.3 mb 0.00 in0.0 mm 0.00 in0.0 mm 0.00 in0.0 mm
03:01 PM 79.0°F26.1°C 54.0°F12.2°C 42% 17.5 mph SE28.2 kmh SE 24.4 mph39.3 kmh 30.01 in1016.3 mb 0.00 in0.0 mm 0.00 in0.0 mm 0.00 in0.0 mm
02:56 PM 79.2°F26.2°C 54.7°F12.6°C 43% 18.4 mph SE29.6 kmh SE 26.8 mph43.1 kmh 30.02 in1016.6 mb 0.00 in0.0 mm 0.00 in0.0 mm 0.00 in0.0 mm
02:51 PM 78.8°F26.0°C 54.3°F12.4°C 43% 21.0 mph SE33.8 kmh SE 26.8 mph43.1 kmh 30.02 in1016.6 mb 0.00 in0.0 mm 0.00 in0.0 mm 0.00 in0.0 mm
02:46 PM 79.7°F26.5°C 54.0°F12.2°C 41% 21.4 mph SE34.4 kmh SE 26.8 mph43.1 kmh 30.02 in1016.6 mb 0.00 in0.0 mm 0.00 in0.0 mm 0.00 in0.0 mm
02:41 PM 79.7°F26.5°C 53.2°F11.8°C 40% 21.3 mph SE34.3 kmh SE 28.0 mph45.1 kmh 30.02 in1016.6 mb 0.00 in0.0 mm 0.00 in0.0 mm 0.00 in0.0 mm
02:36 PM 79.5°F26.4°C 53.1°F11.7°C 40% 20.7 mph SE33.3 kmh SE 28.0 mph45.1 kmh 30.02 in1016.6 mb 0.00 in0.0 mm 0.00 in0.0 mm 0.00 in0.0 mm
02:31 PM 79.7°F26.5°C 53.2°F11.8°C 40% 19.0 mph SE30.6 kmh SE 26.8 mph43.1 kmh 30.03 in1016.9 mb 0.00 in0.0 mm 0.00 in0.0 mm 0.00 in0.0 mm
02:26 PM 79.7°F26.5°C 52.5°F11.4°C 39% 20.1 mph SE32.3 kmh SE 26.8 mph43.1 kmh 30.02 in1016.6 mb 0.00 in0.0 mm 0.00 in0.0 mm 0.00 in0.0 mm
02:21 PM 79.2°F26.2°C 51.4°F10.8°C 38% 21.9 mph SE35.2 kmh SE 26.8 mph43.1 kmh 30.03 in1016.9 mb 0.00 in0.0 mm 0.00 in0.0 mm 0.00 in0.0 mm
02:16 PM 79.7°F26.5°C 51.1°F10.6°C 37% 20.6 mph SE33.2 kmh SE 26.8 mph43.1 kmh 30.03 in1016.9 mb 0.00 in0.0 mm 0.00 in0.0 mm 0.00 in0.0 mm
02:11 PM 79.9°F26.6°C 49.8°F9.9°C 35% 19.6 mph SE31.5 kmh SE 26.8 mph43.1 kmh 30.03 in1016.9 mb 0.00 in0.0 mm 0.00 in0.0 mm 0.00 in0.0 mm
02:06 PM 79.9°F26.6°C 48.2°F9.0°C 33% 22.1 mph SE35.6 kmh SE 22.8 mph36.7 kmh 30.03 in1016.9 mb 0.00 in0.0 mm 0.00 in0.0 mm 0.00 in0.0 mm
02:01 PM 79.9°F26.6°C 45.7°F7.6°C 30% 23.0 mph SE37.0 kmh SE 34.7 mph55.8 kmh 30.03 in1016.9 mb 0.00 in0.0 mm 0.00 in0.0 mm 0.00 in0.0 mm
01:56 PM 79.7°F26.5°C 46.4°F8.0°C 31% 21.6 mph SE34.8 kmh SE 34.7 mph55.8 kmh 30.04 in1017.3 mb 0.00 in0.0 mm 0.00 in0.0 mm 0.00 in0.0 mm
01:51 PM 79.7°F26.5°C 46.4°F8.0°C 31% 23.6 mph SE38.0 kmh SE 29.5 mph47.5 kmh 30.04 in1017.3 mb 0.00 in0.0 mm 0.00 in0.0 mm 0.00 in0.0 mm
01:46 PM 79.7°F26.5°C 48.0°F8.9°C 33% 22.3 mph SE35.9 kmh SE 29.5 mph47.5 kmh 30.04 in1017.3 mb 0.00 in0.0 mm 0.00 in0.0 mm 0.00 in0.0 mm
01:41 PM 80.2°F26.8°C 48.6°F9.2°C 33% 20.0 mph SE32.2 kmh SE 25.5 mph41.0 kmh 30.04 in1017.3 mb 0.00 in0.0 mm 0.00 in0.0 mm 0.00 in0.0 mm
01:36 PM 80.1°F26.7°C 49.1°F9.5°C 34% 23.6 mph SE38.0 kmh SE 29.5 mph47.5 kmh 30.04 in1017.3 mb 0.00 in0.0 mm 0.00 in0.0 mm 0.00 in0.0 mm
01:31 PM 79.9°F26.6°C 49.8°F9.9°C 35% 23.4 mph SE37.7 kmh SE 29.5 mph47.5 kmh 30.04 in1017.3 mb 0.00 in0.0 mm 0.00 in0.0 mm 0.00 in0.0 mm
01:26 PM 80.1°F26.7°C 50.7°F10.4°C 36% 20.5 mph SE33.0 kmh SE 25.5 mph41.0 kmh 30.04 in1017.3 mb 0.00 in0.0 mm 0.00 in0.0 mm 0.00 in0.0 mm
01:21 PM 80.2°F26.8°C 50.9°F10.5°C 36% 21.6 mph SE34.8 kmh SE 25.5 mph41.0 kmh 30.04 in1017.3 mb 0.00 in0.0 mm 0.00 in0.0 mm 0.00 in0.0 mm
01:16 PM 80.1°F26.7°C 51.4°F10.8°C 37% 22.2 mph SE35.7 kmh SE 25.5 mph41.0 kmh 30.04 in1017.3 mb 0.00 in0.0 mm 0.00 in0.0 mm 0.00 in0.0 mm
01:11 PM 80.1°F26.7°C 52.2°F11.2°C 38% 22.3 mph SE35.9 kmh SE 26.8 mph43.1 kmh 30.05 in1017.6 mb 0.00 in0.0 mm 0.00 in0.0 mm 0.00 in0.0 mm
01:06 PM 79.9°F26.6°C 52.7°F11.5°C 39% 22.3 mph SE35.9 kmh SE 30.6 mph49.2 kmh 30.04 in1017.3 mb 0.00 in0.0 mm 0.00 in0.0 mm 0.00 in0.0 mm
01:01 PM 80.2°F26.8°C 52.3°F11.3°C 38% 20.9 mph SE33.6 kmh SE 30.6 mph49.2 kmh 30.04 in1017.3 mb 0.00 in0.0 mm 0.00 in0.0 mm 0.00 in0.0 mm
12:56 PM 80.2°F26.8°C 53.1°F11.7°C 39% 20.0 mph SE32.2 kmh SE 25.5 mph41.0 kmh 30.05 in1017.6 mb 0.00 in0.0 mm 0.00 in0.0 mm 0.00 in0.0 mm
12:51 PM 80.1°F26.7°C 52.2°F11.2°C 38% 23.0 mph SE37.0 kmh SE 28.0 mph45.1 kmh 30.05 in1017.6 mb 0.00 in0.0 mm 0.00 in0.0 mm 0.00 in0.0 mm
12:46 PM 80.8°F27.1°C 51.3°F10.7°C 36% 23.7 mph SE38.1 kmh SE 28.0 mph45.1 kmh 30.05 in1017.6 mb 0.00 in0.0 mm 0.00 in0.0 mm 0.00 in0.0 mm
12:41 PM 80.4°F26.9°C 51.1°F10.6°C 36% 22.3 mph SE35.9 kmh SE 26.8 mph43.1 kmh 30.06 in1017.9 mb 0.00 in0.0 mm 0.00 in0.0 mm 0.00 in0.0 mm
12:36 PM 80.8°F27.1°C 52.2°F11.2°C 37% 20.7 mph SE33.3 kmh SE 26.8 mph43.1 kmh 30.07 in1018.3 mb 0.00 in0.0 mm 0.00 in0.0 mm 0.00 in0.0 mm
12:31 PM 80.8°F27.1°C 52.2°F11.2°C 37% 22.1 mph SE35.6 kmh SE 26.8 mph43.1 kmh 30.06 in1017.9 mb 0.00 in0.0 mm 0.00 in0.0 mm 0.00 in0.0 mm
12:26 PM 80.2°F26.8°C 50.9°F10.5°C 36% 21.7 mph SE34.9 kmh SE 26.8 mph43.1 kmh 30.06 in1017.9 mb 0.00 in0.0 mm 0.00 in0.0 mm 0.00 in0.0 mm
12:21 PM 80.2°F26.8°C 52.3°F11.3°C 38% 18.1 mph SE29.1 kmh SE 22.8 mph36.7 kmh 30.06 in1017.9 mb 0.00 in0.0 mm 0.00 in0.0 mm 0.00 in0.0 mm
12:16 PM 81.0°F27.2°C 52.2°F11.2°C 37% 19.7 mph SE31.7 kmh SE 28.0 mph45.1 kmh 30.07 in1018.3 mb 0.00 in0.0 mm 0.00 in0.0 mm 0.00 in0.0 mm
12:11 PM 81.1°F27.3°C 54.5°F12.5°C 40% 23.5 mph SE37.8 kmh SE 33.1 mph53.3 kmh 30.07 in1018.3 mb 0.00 in0.0 mm 0.00 in0.0 mm 0.00 in0.0 mm
12:06 PM 80.8°F27.1°C 54.9°F12.7°C 41% 21.6 mph SE34.8 kmh SE 33.1 mph53.3 kmh 30.07 in1018.3 mb 0.00 in0.0 mm 0.00 in0.0 mm 0.00 in0.0 mm
12:01 PM 81.1°F27.3°C 54.5°F12.5°C 40% 20.5 mph SE33.0 kmh SE 26.8 mph43.1 kmh 30.07 in1018.3 mb 0.00 in0.0 mm 0.00 in0.0 mm 0.00 in0.0 mm
11:56 AM 80.2°F26.8°C 54.3°F12.4°C 41% 20.7 mph SE33.3 kmh SE 25.5 mph41.0 kmh 30.08 in1018.6 mb 0.00 in0.0 mm 0.00 in0.0 mm 0.00 in0.0 mm
11:51 AM 80.8°F27.1°C 54.9°F12.7°C 41% 20.5 mph SE33.0 kmh SE 22.8 mph36.7 kmh 30.08 in1018.6 mb 0.00 in0.0 mm 0.00 in0.0 mm 0.00 in0.0 mm
11:46 AM 80.2°F26.8°C 54.3°F12.4°C 41% 22.1 mph SE35.6 kmh SE 25.5 mph41.0 kmh 30.08 in1018.6 mb 0.00 in0.0 mm 0.00 in0.0 mm 0.00 in0.0 mm
11:41 AM 79.9°F26.6°C 54.7°F12.6°C 42% 21.0 mph SE33.8 kmh SE 26.8 mph43.1 kmh 30.08 in1018.6 mb 0.00 in0.0 mm 0.00 in0.0 mm 0.00 in0.0 mm
11:36 AM 79.7°F26.5°C 54.5°F12.5°C 42% 19.0 mph SE30.6 kmh SE 26.8 mph43.1 kmh 30.08 in1018.6 mb 0.00 in0.0 mm 0.00 in0.0 mm 0.00 in0.0 mm
11:31 AM 80.1°F26.7°C 54.3°F12.4°C 41% 18.8 mph SE30.3 kmh SE 22.8 mph36.7 kmh 30.09 in1019.0 mb 0.00 in0.0 mm 0.00 in0.0 mm 0.00 in0.0 mm
11:26 AM 79.5°F26.4°C 54.3°F12.4°C 42% 19.8 mph SE31.9 kmh SE 22.8 mph36.7 kmh 30.09 in1019.0 mb 0.00 in0.0 mm 0.00 in0.0 mm 0.00 in0.0 mm
11:21 AM 79.9°F26.6°C 54.1°F12.3°C 41% 20.4 mph SE32.8 kmh SE 22.8 mph36.7 kmh 30.09 in1019.0 mb 0.00 in0.0 mm 0.00 in0.0 mm 0.00 in0.0 mm
11:16 AM 79.7°F26.5°C 53.2°F11.8°C 40% 20.2 mph SE32.5 kmh SE 25.5 mph41.0 kmh 30.09 in1019.0 mb 0.00 in0.0 mm 0.00 in0.0 mm 0.00 in0.0 mm
11:11 AM 79.0°F26.1°C 53.2°F11.8°C 41% 20.3 mph SE32.7 kmh SE 25.5 mph41.0 kmh 30.09 in1019.0 mb 0.00 in0.0 mm 0.00 in0.0 mm 0.00 in0.0 mm
11:06 AM 80.1°F26.7°C 52.2°F11.2°C 38% 21.3 mph SE34.3 kmh SE 25.5 mph41.0 kmh 30.09 in1019.0 mb 0.00 in0.0 mm 0.00 in0.0 mm 0.00 in0.0 mm
11:01 AM 79.7°F26.5°C 54.0°F12.2°C 41% 20.4 mph SE32.8 kmh SE 25.5 mph41.0 kmh 30.10 in1019.3 mb 0.00 in0.0 mm 0.00 in0.0 mm 0.00 in0.0 mm
10:56 AM 80.8°F27.1°C 52.9°F11.6°C 38% 20.8 mph SE33.5 kmh SE 32.0 mph51.5 kmh 30.10 in1019.3 mb 0.00 in0.0 mm 0.00 in0.0 mm 0.00 in0.0 mm
10:51 AM 79.9°F26.6°C 54.7°F12.6°C 42% 20.5 mph SE33.0 kmh SE 32.0 mph51.5 kmh 30.10 in1019.3 mb 0.00 in0.0 mm 0.00 in0.0 mm 0.00 in0.0 mm
10:46 AM 80.1°F26.7°C 54.3°F12.4°C 41% 18.5 mph SE29.8 kmh SE 25.5 mph41.0 kmh 30.10 in1019.3 mb 0.00 in0.0 mm 0.00 in0.0 mm 0.00 in0.0 mm
10:41 AM 79.0°F26.1°C 54.0°F12.2°C 42% 18.8 mph SE30.3 kmh SE 25.5 mph41.0 kmh 30.11 in1019.6 mb 0.00 in0.0 mm 0.00 in0.0 mm 0.00 in0.0 mm
10:36 AM 79.5°F26.4°C 55.0°F12.8°C 43% 16.3 mph SE26.2 kmh SE 24.4 mph39.3 kmh 30.11 in1019.6 mb 0.00 in0.0 mm 0.00 in0.0 mm 0.00 in0.0 mm
10:31 AM 78.6°F25.9°C 54.9°F12.7°C 44% 17.4 mph SE28.0 kmh SE 20.6 mph33.2 kmh 30.11 in1019.6 mb 0.00 in0.0 mm 0.00 in0.0 mm 0.00 in0.0 mm
10:26 AM 78.3°F25.7°C 55.2°F12.9°C 45% 20.0 mph SE32.2 kmh SE 26.8 mph43.1 kmh 30.11 in1019.6 mb 0.00 in0.0 mm 0.00 in0.0 mm 0.00 in0.0 mm
10:21 AM 77.5°F25.3°C 54.0°F12.2°C 44% 20.2 mph SE32.5 kmh SE 26.8 mph43.1 kmh 30.12 in1020.0 mb 0.00 in0.0 mm 0.00 in0.0 mm 0.00 in0.0 mm
10:16 AM 78.6°F25.9°C 56.1°F13.4°C 46% 19.2 mph SE30.9 kmh SE 25.5 mph41.0 kmh 30.12 in1020.0 mb 0.00 in0.0 mm 0.00 in0.0 mm 0.00 in0.0 mm
10:11 AM 79.7°F26.5°C 55.2°F12.9°C 43% 18.2 mph SE29.3 kmh SE 24.4 mph39.3 kmh 30.12 in1020.0 mb 0.00 in0.0 mm 0.00 in0.0 mm 0.00 in0.0 mm
10:06 AM 77.4°F25.2°C 54.3°F12.4°C 45% 17.1 mph SE27.5 kmh SE 24.4 mph39.3 kmh 30.12 in1020.0 mb 0.00 in0.0 mm 0.00 in0.0 mm 0.00 in0.0 mm
10:01 AM 77.2°F25.1°C 54.7°F12.6°C 46% 18.7 mph SE30.1 kmh SE 22.8 mph36.7 kmh 30.12 in1020.0 mb 0.00 in0.0 mm 0.00 in0.0 mm 0.00 in0.0 mm
09:56 AM 77.5°F25.3°C 54.5°F12.5°C 45% 20.0 mph SE32.2 kmh SE 24.4 mph39.3 kmh 30.12 in1020.0 mb 0.00 in0.0 mm 0.00 in0.0 mm 0.00 in0.0 mm
09:51 AM 76.6°F24.8°C 54.3°F12.4°C 46% 20.0 mph SE32.2 kmh SE 25.5 mph41.0 kmh 30.13 in1020.3 mb 0.00 in0.0 mm 0.00 in0.0 mm 0.00 in0.0 mm
09:46 AM 75.9°F24.4°C 53.6°F12.0°C 46% 22.5 mph SE36.2 kmh SE 25.5 mph41.0 kmh 30.13 in1020.3 mb 0.00 in0.0 mm 0.00 in0.0 mm 0.00 in0.0 mm
09:41 AM 77.0°F25.0°C 54.0°F12.2°C 45% 21.6 mph SE34.8 kmh SE 25.5 mph41.0 kmh 30.12 in1020.0 mb 0.00 in0.0 mm 0.00 in0.0 mm 0.00 in0.0 mm
09:36 AM 78.4°F25.8°C 54.1°F12.3°C 43% 21.6 mph SE34.8 kmh SE 25.5 mph41.0 kmh 30.13 in1020.3 mb 0.00 in0.0 mm 0.00 in0.0 mm 0.00 in0.0 mm
09:31 AM 77.5°F25.3°C 52.7°F11.5°C 42% 20.7 mph SE33.3 kmh SE 25.5 mph41.0 kmh 30.13 in1020.3 mb 0.00 in0.0 mm 0.00 in0.0 mm 0.00 in0.0 mm
09:26 AM 78.3°F25.7°C 53.2°F11.8°C 42% 19.9 mph SE32.0 kmh SE 25.5 mph41.0 kmh 30.13 in1020.3 mb 0.00 in0.0 mm 0.00 in0.0 mm 0.00 in0.0 mm
09:21 AM 77.7°F25.4°C 54.0°F12.2°C 44% 20.6 mph SE33.2 kmh SE 25.5 mph41.0 kmh 30.13 in1020.3 mb 0.00 in0.0 mm 0.00 in0.0 mm 0.00 in0.0 mm
09:16 AM 77.2°F25.1°C 54.7°F12.6°C 46% 21.4 mph SE34.4 kmh SE 24.4 mph39.3 kmh 30.12 in1020.0 mb 0.00 in0.0 mm 0.00 in0.0 mm 0.00 in0.0 mm
09:11 AM 77.0°F25.0°C 54.7°F12.6°C 46% 22.8 mph SE36.7 kmh SE 30.6 mph49.2 kmh 30.13 in1020.3 mb 0.00 in0.0 mm 0.00 in0.0 mm 0.00 in0.0 mm
09:06 AM 77.0°F25.0°C 54.7°F12.6°C 46% 21.8 mph SE35.1 kmh SE 30.6 mph49.2 kmh 30.13 in1020.3 mb 0.00 in0.0 mm 0.00 in0.0 mm 0.00 in0.0 mm
09:01 AM 77.0°F25.0°C 55.2°F12.9°C 47% 20.1 mph SE32.3 kmh SE 22.8 mph36.7 kmh 30.13 in1020.3 mb 0.00 in0.0 mm 0.00 in0.0 mm 0.00 in0.0 mm
08:56 AM 77.0°F25.0°C 56.8°F13.8°C 50% 22.3 mph SE35.9 kmh SE 28.0 mph45.1 kmh 30.13 in1020.3 mb 0.00 in0.0 mm 0.00 in0.0 mm 0.00 in0.0 mm
08:51 AM 75.7°F24.3°C 55.8°F13.2°C 50% 25.3 mph SE40.7 kmh SE 30.6 mph49.2 kmh 30.13 in1020.3 mb 0.00 in0.0 mm 0.00 in0.0 mm 0.00 in0.0 mm
08:46 AM 75.0°F23.9°C 56.1°F13.4°C 52% 22.9 mph SE36.9 kmh SE 30.6 mph49.2 kmh 30.13 in1020.3 mb 0.00 in0.0 mm 0.00 in0.0 mm 0.00 in0.0 mm
08:41 AM 76.1°F24.5°C 56.7°F13.7°C 51% 17.8 mph SE28.6 kmh SE 26.8 mph43.1 kmh 30.13 in1020.3 mb 0.00 in0.0 mm 0.00 in0.0 mm 0.00 in0.0 mm
08:36 AM 75.9°F24.4°C 56.5°F13.6°C 51% 18.6 mph SE29.9 kmh SE 22.8 mph36.7 kmh 30.13 in1020.3 mb 0.00 in0.0 mm 0.00 in0.0 mm 0.00 in0.0 mm
08:31 AM 74.8°F23.8°C 56.5°F13.6°C 53% 18.9 mph SSE30.4 kmh SSE 22.8 mph36.7 kmh 30.14 in1020.7 mb 0.00 in0.0 mm 0.00 in0.0 mm 0.00 in0.0 mm
08:26 AM 73.8°F23.2°C 55.9°F13.3°C 54% 19.4 mph SE31.2 kmh SE 24.4 mph39.3 kmh 30.13 in1020.3 mb 0.00 in0.0 mm 0.00 in0.0 mm 0.00 in0.0 mm
08:21 AM 73.2°F22.9°C 55.0°F12.8°C 53% 19.5 mph SE31.4 kmh SE 24.4 mph39.3 kmh 30.13 in1020.3 mb 0.00 in0.0 mm 0.00 in0.0 mm 0.00 in0.0 mm
08:16 AM 73.8°F23.2°C 55.0°F12.8°C 52% 16.0 mph SE25.7 kmh SE 19.3 mph31.1 kmh 30.12 in1020.0 mb 0.00 in0.0 mm 0.00 in0.0 mm 0.00 in0.0 mm
08:11 AM 73.6°F23.1°C 56.3°F13.5°C 55% 16.9 mph SE27.2 kmh SE 21.7 mph34.9 kmh 30.12 in1020.0 mb 0.00 in0.0 mm 0.00 in0.0 mm 0.00 in0.0 mm
08:06 AM 72.0°F22.2°C 55.4°F13.0°C 56% 17.6 mph SE28.3 kmh SE 21.7 mph34.9 kmh 30.13 in1020.3 mb 0.00 in0.0 mm 0.00 in0.0 mm 0.00 in0.0 mm
08:01 AM 71.6°F22.0°C 55.9°F13.3°C 58% 15.4 mph SE24.8 kmh SE 24.4 mph39.3 kmh 30.13 in1020.3 mb 0.00 in0.0 mm 0.00 in0.0 mm 0.00 in0.0 mm
07:56 AM 71.4°F21.9°C 56.3°F13.5°C 59% 13.7 mph SE22.0 kmh SE 24.4 mph39.3 kmh 30.12 in1020.0 mb 0.00 in0.0 mm 0.00 in0.0 mm 0.00 in0.0 mm
07:51 AM 71.6°F22.0°C 56.8°F13.8°C 60% 15.0 mph SE24.1 kmh SE 18.1 mph29.1 kmh 30.12 in1020.0 mb 0.00 in0.0 mm 0.00 in0.0 mm 0.00 in0.0 mm
07:46 AM 71.6°F22.0°C 56.8°F13.8°C 60% 16.2 mph SE26.1 kmh SE 18.1 mph29.1 kmh 30.12 in1020.0 mb 0.00 in0.0 mm 0.00 in0.0 mm 0.00 in0.0 mm
07:41 AM 71.4°F21.9°C 56.8°F13.8°C 60% 15.9 mph SE25.6 kmh SE 20.6 mph33.2 kmh 30.12 in1020.0 mb 0.00 in0.0 mm 0.00 in0.0 mm 0.00 in0.0 mm
07:36 AM 72.1°F22.3°C 56.5°F13.6°C 58% 18.1 mph SE29.1 kmh SE 21.7 mph34.9 kmh 30.12 in1020.0 mb 0.00 in0.0 mm 0.00 in0.0 mm 0.00 in0.0 mm
07:31 AM 72.7°F22.6°C 57.6°F14.2°C 59% 19.8 mph SE31.9 kmh SE 26.8 mph43.1 kmh 30.12 in1020.0 mb 0.00 in0.0 mm 0.00 in0.0 mm 0.00 in0.0 mm
07:26 AM 72.5°F22.5°C 57.4°F14.1°C 59% 16.9 mph SE27.2 kmh SE 26.8 mph43.1 kmh 30.12 in1020.0 mb 0.00 in0.0 mm 0.00 in0.0 mm 0.00 in0.0 mm
07:21 AM 72.5°F22.5°C 57.4°F14.1°C 59% 13.6 mph SE21.9 kmh SE 18.1 mph29.1 kmh 30.12 in1020.0 mb 0.00 in0.0 mm 0.00 in0.0 mm 0.00 in0.0 mm
07:16 AM 72.3°F22.4°C 57.6°F14.2°C 60% 15.3 mph SE24.6 kmh SE 16.5 mph26.6 kmh 30.12 in1020.0 mb 0.00 in0.0 mm 0.00 in0.0 mm 0.00 in0.0 mm
07:11 AM 72.0°F22.2°C 57.2°F14.0°C 60% 14.8 mph SE23.8 kmh SE 21.7 mph34.9 kmh 30.12 in1020.0 mb 0.00 in0.0 mm 0.00 in0.0 mm 0.00 in0.0 mm
07:06 AM 71.6°F22.0°C 56.8°F13.8°C 60% 12.8 mph SE20.6 kmh SE 21.7 mph34.9 kmh 30.11 in1019.6 mb 0.00 in0.0 mm 0.00 in0.0 mm 0.00 in0.0 mm
07:01 AM 71.4°F21.9°C 57.2°F14.0°C 61% 12.5 mph SE20.1 kmh SE 16.5 mph26.6 kmh 30.11 in1019.6 mb 0.00 in0.0 mm 0.00 in0.0 mm 0.00 in0.0 mm
06:56 AM 71.2°F21.8°C 57.0°F13.9°C 61% 11.3 mph SE18.2 kmh SE 15.4 mph24.8 kmh 30.11 in1019.6 mb 0.00 in0.0 mm 0.00 in0.0 mm 0.00 in0.0 mm
06:51 AM 70.7°F21.5°C 57.0°F13.9°C 62% 10.9 mph SE17.5 kmh SE 14.1 mph22.7 kmh 30.11 in1019.6 mb 0.00 in0.0 mm 0.00 in0.0 mm 0.00 in0.0 mm
06:46 AM 70.3°F21.3°C 56.7°F13.7°C 62% 11.1 mph SE17.9 kmh SE 14.1 mph22.7 kmh 30.11 in1019.6 mb 0.00 in0.0 mm 0.00 in0.0 mm 0.00 in0.0 mm
06:41 AM 69.8°F21.0°C 56.7°F13.7°C 63% 10.9 mph SE17.5 kmh SE 14.1 mph22.7 kmh 30.11 in1019.6 mb 0.00 in0.0 mm 0.00 in0.0 mm 0.00 in0.0 mm
06:36 AM 69.6°F20.9°C 56.5°F13.6°C 63% 9.1 mph SE14.6 kmh SE 11.4 mph18.3 kmh 30.10 in1019.3 mb 0.00 in0.0 mm 0.00 in0.0 mm 0.00 in0.0 mm
06:31 AM 69.1°F20.6°C 55.9°F13.3°C 63% 8.1 mph SE13.0 kmh SE 8.9 mph14.3 kmh 30.10 in1019.3 mb 0.00 in0.0 mm 0.00 in0.0 mm 0.00 in0.0 mm
06:26 AM 68.7°F20.4°C 55.9°F13.3°C 64% 9.1 mph SE14.6 kmh SE 11.4 mph18.3 kmh 30.10 in1019.3 mb 0.00 in0.0 mm 0.00 in0.0 mm 0.00 in0.0 mm
06:21 AM 68.5°F20.3°C 55.8°F13.2°C 64% 8.7 mph SE14.0 kmh SE 11.4 mph18.3 kmh 30.10 in1019.3 mb 0.00 in0.0 mm 0.00 in0.0 mm 0.00 in0.0 mm
06:16 AM 68.2°F20.1°C 55.4°F13.0°C 64% 8.0 mph SE12.9 kmh SE 11.4 mph18.3 kmh 30.10 in1019.3 mb 0.00 in0.0 mm 0.00 in0.0 mm 0.00 in0.0 mm
06:11 AM 67.6°F19.8°C 55.0°F12.8°C 64% 9.0 mph SE14.5 kmh SE 11.4 mph18.3 kmh 30.10 in1019.3 mb 0.00 in0.0 mm 0.00 in0.0 mm 0.00 in0.0 mm
06:06 AM 67.3°F19.6°C 55.0°F12.8°C 65% 8.9 mph SSE14.3 kmh SSE 11.4 mph18.3 kmh 30.10 in1019.3 mb 0.00 in0.0 mm 0.00 in0.0 mm 0.00 in0.0 mm
06:01 AM 66.6°F19.2°C 54.9°F12.7°C 66% 9.7 mph SSE15.6 kmh SSE 14.1 mph22.7 kmh 30.09 in1019.0 mb 0.00 in0.0 mm 0.00 in0.0 mm 0.00 in0.0 mm
05:56 AM 66.4°F19.1°C 54.7°F12.6°C 66% 10.4 mph SSE16.7 kmh SSE 14.1 mph22.7 kmh 30.09 in1019.0 mb 0.00 in0.0 mm 0.00 in0.0 mm 0.00 in0.0 mm
05:51 AM 66.4°F19.1°C 54.7°F12.6°C 66% 9.4 mph SE15.1 kmh SE 10.3 mph16.6 kmh 30.09 in1019.0 mb 0.00 in0.0 mm 0.00 in0.0 mm 0.00 in0.0 mm
05:46 AM 66.4°F19.1°C 55.0°F12.8°C 67% 9.5 mph SSE15.3 kmh SSE 11.4 mph18.3 kmh 30.09 in1019.0 mb 0.00 in0.0 mm 0.00 in0.0 mm 0.00 in0.0 mm
05:41 AM 66.4°F19.1°C 55.0°F12.8°C 67% 10.3 mph SSE16.6 kmh SSE 13.0 mph20.9 kmh 30.09 in1019.0 mb 0.00 in0.0 mm 0.00 in0.0 mm 0.00 in0.0 mm
05:36 AM 66.6°F19.2°C 55.2°F12.9°C 67% 10.9 mph SSE17.5 kmh SSE 14.1 mph22.7 kmh 30.09 in1019.0 mb 0.00 in0.0 mm 0.00 in0.0 mm 0.00 in0.0 mm
05:21 AM 66.4°F19.1°C 55.0°F12.8°C 67% 10.7 mph SE17.2 kmh SE 13.0 mph20.9 kmh 30.09 in1019.0 mb 0.00 in0.0 mm 0.00 in0.0 mm 0.00 in0.0 mm
05:16 AM 66.4°F19.1°C 55.0°F12.8°C 67% 10.3 mph SE16.6 kmh SE 13.0 mph20.9 kmh 30.09 in1019.0 mb 0.00 in0.0 mm 0.00 in0.0 mm 0.00 in0.0 mm
05:11 AM 66.6°F19.2°C 55.2°F12.9°C 67% 9.6 mph SSE15.4 kmh SSE 11.4 mph18.3 kmh 30.09 in1019.0 mb 0.00 in0.0 mm 0.00 in0.0 mm 0.00 in0.0 mm
05:06 AM 66.6°F19.2°C 55.2°F12.9°C 67% 11.1 mph SSE17.9 kmh SSE 13.0 mph20.9 kmh 30.09 in1019.0 mb 0.00 in0.0 mm 0.00 in0.0 mm 0.00 in0.0 mm
05:01 AM 66.6°F19.2°C 55.2°F12.9°C 67% 11.7 mph SE18.8 kmh SE 13.0 mph20.9 kmh 30.09 in1019.0 mb 0.00 in0.0 mm 0.00 in0.0 mm 0.00 in0.0 mm
04:56 AM 66.9°F19.4°C 55.6°F13.1°C 67% 10.6 mph SE17.1 kmh SE 11.4 mph18.3 kmh 30.09 in1019.0 mb 0.00 in0.0 mm 0.00 in0.0 mm 0.00 in0.0 mm
04:51 AM 66.6°F19.2°C 55.6°F13.1°C 68% 10.6 mph SE17.1 kmh SE 11.4 mph18.3 kmh 30.08 in1018.6 mb 0.00 in0.0 mm 0.00 in0.0 mm 0.00 in0.0 mm
04:46 AM 66.6°F19.2°C 55.6°F13.1°C 68% 11.3 mph SE18.2 kmh SE 13.0 mph20.9 kmh 30.08 in1018.6 mb 0.00 in0.0 mm 0.00 in0.0 mm 0.00 in0.0 mm
04:41 AM 66.9°F19.4°C 55.6°F13.1°C 67% 11.4 mph SE18.3 kmh SE 14.1 mph22.7 kmh 30.08 in1018.6 mb 0.00 in0.0 mm 0.00 in0.0 mm 0.00 in0.0 mm
04:36 AM 67.1°F19.5°C 55.8°F13.2°C 67% 11.0 mph SE17.7 kmh SE 14.1 mph22.7 kmh 30.08 in1018.6 mb 0.00 in0.0 mm 0.00 in0.0 mm 0.00 in0.0 mm
04:31 AM 67.1°F19.5°C 56.1°F13.4°C 68% 10.3 mph SE16.6 kmh SE 13.0 mph20.9 kmh 30.08 in1018.6 mb 0.00 in0.0 mm 0.00 in0.0 mm 0.00 in0.0 mm
04:26 AM 66.9°F19.4°C 55.9°F13.3°C 68% 9.3 mph SE15.0 kmh SE 11.4 mph18.3 kmh 30.08 in1018.6 mb 0.00 in0.0 mm 0.00 in0.0 mm 0.00 in0.0 mm
04:21 AM 66.6°F19.2°C 55.6°F13.1°C 68% 8.6 mph SE13.8 kmh SE 11.4 mph18.3 kmh 30.07 in1018.3 mb 0.00 in0.0 mm 0.00 in0.0 mm 0.00 in0.0 mm
04:11 AM 66.9°F19.4°C 55.9°F13.3°C 68% 8.4 mph SE13.5 kmh SE 10.3 mph16.6 kmh 30.07 in1018.3 mb 0.00 in0.0 mm 0.00 in0.0 mm 0.00 in0.0 mm
04:06 AM 66.6°F19.2°C 55.6°F13.1°C 68% 8.2 mph SE13.2 kmh SE 8.9 mph14.3 kmh 30.07 in1018.3 mb 0.00 in0.0 mm 0.00 in0.0 mm 0.00 in0.0 mm
03:56 AM 66.6°F19.2°C 55.9°F13.3°C 69% 8.3 mph SE13.4 kmh SE 10.3 mph16.6 kmh 30.07 in1018.3 mb 0.00 in0.0 mm 0.00 in0.0 mm 0.00 in0.0 mm
03:51 AM 66.6°F19.2°C 55.9°F13.3°C 69% 8.1 mph SE13.0 kmh SE 8.9 mph14.3 kmh 30.07 in1018.3 mb 0.00 in0.0 mm 0.00 in0.0 mm 0.00 in0.0 mm
03:41 AM 66.6°F19.2°C 55.9°F13.3°C 69% 7.3 mph SE11.7 kmh SE 8.9 mph14.3 kmh 30.07 in1018.3 mb 0.00 in0.0 mm 0.00 in0.0 mm 0.00 in0.0 mm
03:36 AM 66.6°F19.2°C 55.9°F13.3°C 69% 8.5 mph SE13.7 kmh SE 11.4 mph18.3 kmh 30.07 in1018.3 mb 0.00 in0.0 mm 0.00 in0.0 mm 0.00 in0.0 mm
03:31 AM 67.1°F19.5°C 56.5°F13.6°C 69% 9.3 mph SE15.0 kmh SE 11.4 mph18.3 kmh 30.07 in1018.3 mb 0.00 in0.0 mm 0.00 in0.0 mm 0.00 in0.0 mm
03:21 AM 67.1°F19.5°C 56.5°F13.6°C 69% 9.5 mph SE15.3 kmh SE 13.0 mph20.9 kmh 30.07 in1018.3 mb 0.00 in0.0 mm 0.00 in0.0 mm 0.00 in0.0 mm
03:16 AM 67.1°F19.5°C 56.5°F13.6°C 69% 9.4 mph SE15.1 kmh SE 13.0 mph20.9 kmh 30.07 in1018.3 mb 0.00 in0.0 mm 0.00 in0.0 mm 0.00 in0.0 mm
03:11 AM 66.6°F19.2°C 56.5°F13.6°C 70% 9.0 mph SE14.5 kmh SE 10.3 mph16.6 kmh 30.07 in1018.3 mb 0.00 in0.0 mm 0.00 in0.0 mm 0.00 in0.0 mm
03:06 AM 66.6°F19.2°C 56.5°F13.6°C 70% 9.5 mph SE15.3 kmh SE 11.4 mph18.3 kmh 30.07 in1018.3 mb 0.00 in0.0 mm 0.00 in0.0 mm 0.00 in0.0 mm
03:01 AM 66.9°F19.4°C 56.8°F13.8°C 70% 9.1 mph SE14.6 kmh SE 11.4 mph18.3 kmh 30.07 in1018.3 mb 0.00 in0.0 mm 0.00 in0.0 mm 0.00 in0.0 mm
02:56 AM 66.6°F19.2°C 56.5°F13.6°C 70% 8.3 mph SE13.4 kmh SE 10.3 mph16.6 kmh 30.07 in1018.3 mb 0.00 in0.0 mm 0.00 in0.0 mm 0.00 in0.0 mm
02:51 AM 66.0°F18.9°C 56.3°F13.5°C 71% 6.9 mph SE11.1 kmh SE 10.3 mph16.6 kmh 30.07 in1018.3 mb 0.00 in0.0 mm 0.00 in0.0 mm 0.00 in0.0 mm
02:46 AM 66.2°F19.0°C 56.1°F13.4°C 70% 7.0 mph SE11.3 kmh SE 10.3 mph16.6 kmh 30.07 in1018.3 mb 0.00 in0.0 mm 0.00 in0.0 mm 0.00 in0.0 mm
02:41 AM 66.6°F19.2°C 56.5°F13.6°C 70% 7.3 mph SE11.7 kmh SE 10.3 mph16.6 kmh 30.07 in1018.3 mb 0.00 in0.0 mm 0.00 in0.0 mm 0.00 in0.0 mm
02:36 AM 66.2°F19.0°C 56.5°F13.6°C 71% 5.6 mph SE9.0 kmh SE 7.8 mph12.6 kmh 30.07 in1018.3 mb 0.00 in0.0 mm 0.00 in0.0 mm 0.00 in0.0 mm
02:31 AM 65.8°F18.8°C 56.5°F13.6°C 72% 4.4 mph SE7.1 kmh SE 6.3 mph10.1 kmh 30.07 in1018.3 mb 0.00 in0.0 mm 0.00 in0.0 mm 0.00 in0.0 mm
02:26 AM 65.7°F18.7°C 55.9°F13.3°C 71% 5.0 mph SE8.0 kmh SE 10.3 mph16.6 kmh 30.07 in1018.3 mb 0.00 in0.0 mm 0.00 in0.0 mm 0.00 in0.0 mm
02:21 AM 66.2°F19.0°C 55.6°F13.1°C 69% 6.3 mph SE10.1 kmh SE 10.3 mph16.6 kmh 30.07 in1018.3 mb 0.00 in0.0 mm 0.00 in0.0 mm 0.00 in0.0 mm
02:16 AM 66.4°F19.1°C 56.3°F13.5°C 70% 6.5 mph SE10.5 kmh SE 10.3 mph16.6 kmh 30.07 in1018.3 mb 0.00 in0.0 mm 0.00 in0.0 mm 0.00 in0.0 mm
02:11 AM 66.9°F19.4°C 56.3°F13.5°C 69% 8.3 mph SE13.4 kmh SE 11.4 mph18.3 kmh 30.07 in1018.3 mb 0.00 in0.0 mm 0.00 in0.0 mm 0.00 in0.0 mm
02:06 AM 67.1°F19.5°C 56.5°F13.6°C 69% 8.9 mph SE14.3 kmh SE 11.4 mph18.3 kmh 30.07 in1018.3 mb 0.00 in0.0 mm 0.00 in0.0 mm 0.00 in0.0 mm
02:01 AM 67.1°F19.5°C 56.5°F13.6°C 69% 8.5 mph SE13.7 kmh SE 11.4 mph18.3 kmh 30.07 in1018.3 mb 0.00 in0.0 mm 0.00 in0.0 mm 0.00 in0.0 mm
01:56 AM 67.1°F19.5°C 56.5°F13.6°C 69% 9.3 mph SE15.0 kmh SE 11.4 mph18.3 kmh 30.07 in1018.3 mb 0.00 in0.0 mm 0.00 in0.0 mm 0.00 in0.0 mm
01:41 AM 67.1°F19.5°C 56.5°F13.6°C 69% 8.8 mph SSE14.2 kmh SSE 11.4 mph18.3 kmh 30.08 in1018.6 mb 0.00 in0.0 mm 0.00 in0.0 mm 0.00 in0.0 mm
01:31 AM 67.1°F19.5°C 56.5°F13.6°C 69% 7.6 mph SSE12.2 kmh SSE 8.9 mph14.3 kmh 30.08 in1018.6 mb 0.00 in0.0 mm 0.00 in0.0 mm 0.00 in0.0 mm
01:26 AM 66.9°F19.4°C 56.3°F13.5°C 69% 7.2 mph SSE11.6 kmh SSE 8.9 mph14.3 kmh 30.09 in1019.0 mb 0.00 in0.0 mm 0.00 in0.0 mm 0.00 in0.0 mm
01:21 AM 66.6°F19.2°C 55.9°F13.3°C 69% 6.5 mph SSE10.5 kmh SSE 8.9 mph14.3 kmh 30.09 in1019.0 mb 0.00 in0.0 mm 0.00 in0.0 mm 0.00 in0.0 mm
01:16 AM 66.9°F19.4°C 56.3°F13.5°C 69% 6.5 mph SSE10.5 kmh SSE 8.9 mph14.3 kmh 30.09 in1019.0 mb 0.00 in0.0 mm 0.00 in0.0 mm 0.00 in0.0 mm
01:11 AM 66.9°F19.4°C 56.3°F13.5°C 69% 6.5 mph SSE10.5 kmh SSE 7.8 mph12.6 kmh 30.09 in1019.0 mb 0.00 in0.0 mm 0.00 in0.0 mm 0.00 in0.0 mm
01:01 AM 67.1°F19.5°C 56.1°F13.4°C 68% 7.1 mph SSE11.4 kmh SSE 8.9 mph14.3 kmh 30.09 in1019.0 mb 0.00 in0.0 mm 0.00 in0.0 mm 0.00 in0.0 mm
12:56 AM 67.1°F19.5°C 56.1°F13.4°C 68% 6.6 mph SSE10.6 kmh SSE 8.9 mph14.3 kmh 30.09 in1019.0 mb 0.00 in0.0 mm 0.00 in0.0 mm 0.00 in0.0 mm
12:51 AM 67.1°F19.5°C 56.1°F13.4°C 68% 7.5 mph SSE12.1 kmh SSE 10.3 mph16.6 kmh 30.09 in1019.0 mb 0.00 in0.0 mm 0.00 in0.0 mm 0.00 in0.0 mm
12:46 AM 67.3°F19.6°C 56.3°F13.5°C 68% 8.0 mph SE12.9 kmh SE 11.4 mph18.3 kmh 30.09 in1019.0 mb 0.00 in0.0 mm 0.00 in0.0 mm 0.00 in0.0 mm
12:41 AM 67.1°F19.5°C 56.1°F13.4°C 68% 7.7 mph SSE12.4 kmh SSE 11.4 mph18.3 kmh 30.09 in1019.0 mb 0.00 in0.0 mm 0.00 in0.0 mm 0.00 in0.0 mm
12:36 AM 67.1°F19.5°C 56.1°F13.4°C 68% 7.0 mph SSE11.3 kmh SSE 8.9 mph14.3 kmh 30.09 in1019.0 mb 0.00 in0.0 mm 0.00 in0.0 mm 0.00 in0.0 mm
12:31 AM 67.1°F19.5°C 56.1°F13.4°C 68% 6.2 mph SE10.0 kmh SE 8.9 mph14.3 kmh 30.10 in1019.3 mb 0.00 in0.0 mm 0.00 in0.0 mm 0.00 in0.0 mm
12:26 AM 67.3°F19.6°C 56.3°F13.5°C 68% 6.3 mph SE10.1 kmh SE 8.9 mph14.3 kmh 30.10 in1019.3 mb 0.00 in0.0 mm 0.00 in0.0 mm 0.00 in0.0 mm
12:21 AM 67.3°F19.6°C 56.3°F13.5°C 68% 6.8 mph SE10.9 kmh SE 10.3 mph16.6 kmh 30.10 in1019.3 mb 0.00 in0.0 mm 0.00 in0.0 mm 0.00 in0.0 mm
12:11 AM 67.3°F19.6°C 56.3°F13.5°C 68% 5.2 mph SSE8.4 kmh SSE 8.9 mph14.3 kmh 30.10 in1019.3 mb 0.00 in0.0 mm 0.00 in0.0 mm 0.00 in0.0 mm
12:06 AM 67.3°F19.6°C 56.3°F13.5°C 68% 6.0 mph SE9.7 kmh SE 7.8 mph12.6 kmh 30.10 in1019.3 mb 0.00 in0.0 mm 0.00 in0.0 mm 0.00 in0.0 mm
12:01 AM 67.5°F19.7°C 56.1°F13.4°C 67% 7.0 mph SE11.3 kmh SE 8.9 mph14.3 kmh 30.11 in1019.6 mb 0.00 in0.0 mm 0.00 in0.0 mm 0.00 in0.0 mm